Time;durP1;ratioP1;P1;durP2;ratioP2;P2;SDS_P1;SDS_P2;PMS_P1;PMS_P2;Temp;Humidity;BMP_temperature;BMP_pressure;BME280_temperature;BME280_humidity;BME280_pressure;Samples;Min_cycle;Max_cycle;Signal;HPM_P1;HPM_P2
2023/05/23 00:00:43;;;;;;;8.63;5.38;;;15.80;99.90;;;;;;5073694;28;20028;-64
2023/05/23 00:03:09;;;;;;;10.07;5.72;;;15.80;99.90;;;;;;5073301;28;20432;-65
2023/05/23 00:05:35;;;;;;;7.70;5.20;;;15.70;99.90;;;;;;5073677;28;20438;-64
2023/05/23 00:08:01;;;;;;;9.63;5.45;;;15.70;99.90;;;;;;5072818;28;20515;-65
2023/05/23 00:10:26;;;;;;;9.88;4.97;;;15.70;99.90;;;;;;5072413;28;20021;-65
2023/05/23 00:12:52;;;;;;;8.82;4.93;;;15.70;99.90;;;;;;5072990;28;20102;-65
2023/05/23 00:15:18;;;;;;;10.32;5.80;;;15.70;99.90;;;;;;5072441;28;20024;-65
2023/05/23 00:17:44;;;;;;;10.40;5.95;;;15.70;99.90;;;;;;5073400;28;20066;-65
2023/05/23 00:20:13;;;;;;;12.20;5.72;;;15.70;99.90;;;;;;5072319;28;20048;-65
2023/05/23 00:22:41;;;;;;;9.48;4.82;;;15.70;99.90;;;;;;5072460;28;20120;-65
2023/05/23 00:25:10;;;;;;;7.28;4.75;;;15.70;99.90;;;;;;5072720;28;20009;-65
2023/05/23 00:27:36;;;;;;;13.38;5.35;;;15.70;99.90;;;;;;5073578;28;20024;-65
2023/05/23 00:30:03;;;;;;;6.85;4.47;;;15.70;99.90;;;;;;5072010;28;20044;-65
2023/05/23 00:32:28;;;;;;;11.25;5.32;;;15.70;99.90;;;;;;5072959;28;20441;-64
2023/05/23 00:34:54;;;;;;;9.90;5.53;;;15.70;99.90;;;;;;5073449;28;20103;-65
2023/05/23 00:37:21;;;;;;;9.25;5.13;;;15.70;99.90;;;;;;5072016;28;20032;-64
2023/05/23 00:39:47;;;;;;;8.65;4.55;;;15.60;99.90;;;;;;5073324;28;20020;-65
2023/05/23 00:42:13;;;;;;;10.45;4.53;;;15.60;99.90;;;;;;5073840;28;20025;-64
2023/05/23 00:44:38;;;;;;;9.10;4.43;;;15.60;99.90;;;;;;5071220;28;20028;-65
2023/05/23 00:47:05;;;;;;;9.80;4.85;;;15.60;99.90;;;;;;5071423;28;20407;-65
2023/05/23 00:49:31;;;;;;;8.75;4.70;;;15.60;99.90;;;;;;5072808;28;20385;-65
2023/05/23 00:51:56;;;;;;;11.18;5.18;;;15.60;99.90;;;;;;5073444;28;20028;-65
2023/05/23 00:54:32;;;;;;;15.30;6.07;;;15.60;99.90;;;;;;5073348;28;20033;-66
2023/05/23 00:56:58;;;;;;;12.70;5.22;;;15.60;99.90;;;;;;5049626;28;20044;-65
2023/05/23 00:59:25;;;;;;;14.95;7.20;;;15.60;99.90;;;;;;5034846;28;20520;-66
2023/05/23 01:01:53;;;;;;;13.07;6.05;;;15.50;99.90;;;;;;5055039;28;20029;-65
2023/05/23 01:04:19;;;;;;;14.07;5.60;;;15.50;99.90;;;;;;5069709;28;20028;-74
2023/05/23 01:06:47;;;;;;;17.30;6.35;;;15.50;99.90;;;;;;5042413;28;20021;-65
2023/05/23 01:09:15;;;;;;;11.32;6.13;;;15.40;99.90;;;;;;5073195;28;20123;-70
2023/05/23 01:12:06;;;;;;;11.15;5.10;;;15.40;99.90;;;;;;5053687;28;20028;-66
2023/05/23 01:14:44;;;;;;;12.35;5.07;;;15.30;99.90;;;;;;5058699;28;20024;-64
2023/05/23 01:17:20;;;;;;;11.23;5.13;;;15.30;99.90;;;;;;5042544;28;20067;-67
2023/05/23 01:20:01;;;;;;;10.00;4.80;;;15.30;99.90;;;;;;5034562;28;20088;-65
2023/05/23 01:22:47;;;;;;;11.75;4.15;;;15.20;99.90;;;;;;5053904;28;20035;-66
2023/05/23 01:25:45;;;;;;;8.25;4.60;;;15.10;99.90;;;;;;5071345;28;20031;-64
2023/05/23 01:28:15;;;;;;;9.05;4.50;;;15.00;99.90;;;;;;5068877;28;20028;-65
2023/05/23 01:30:44;;;;;;;9.80;4.55;;;15.00;99.90;;;;;;5072948;28;20103;-65
2023/05/23 01:33:12;;;;;;;10.82;5.35;;;15.00;99.90;;;;;;5072133;28;20024;-64
2023/05/23 01:35:39;;;;;;;10.25;4.88;;;14.90;99.90;;;;;;5070903;28;20107;-65
2023/05/23 01:38:04;;;;;;;9.27;4.70;;;14.90;99.90;;;;;;5070150;28;20024;-65
2023/05/23 01:40:30;;;;;;;14.95;4.63;;;14.90;99.90;;;;;;5072692;28;20050;-64
2023/05/23 01:42:56;;;;;;;9.05;4.75;;;14.90;99.90;;;;;;5075302;28;20409;-65
2023/05/23 01:45:25;;;;;;;9.32;5.03;;;14.90;99.90;;;;;;5075494;28;20045;-64
2023/05/23 01:47:52;;;;;;;10.77;5.32;;;14.90;99.90;;;;;;5074555;28;20074;-65
2023/05/23 01:50:18;;;;;;;12.10;5.30;;;14.90;99.90;;;;;;5058560;28;20085;-65
2023/05/23 01:52:45;;;;;;;10.38;5.10;;;14.90;99.90;;;;;;5074032;28;20028;-65
2023/05/23 01:55:14;;;;;;;10.63;5.32;;;14.90;99.90;;;;;;5075077;28;20108;-65
2023/05/23 01:57:41;;;;;;;9.60;5.63;;;14.90;99.90;;;;;;5075832;28;20020;-67
2023/05/23 02:00:09;;;;;;;8.48;5.20;;;15.00;99.90;;;;;;5075101;28;20046;-65
2023/05/23 02:02:35;;;;;;;11.45;5.70;;;14.90;99.90;;;;;;5075249;28;20042;-68
2023/05/23 02:05:01;;;;;;;13.82;5.85;;;14.90;99.90;;;;;;5076035;28;20029;-66
2023/05/23 02:07:26;;;;;;;12.32;5.63;;;14.90;99.90;;;;;;5073540;28;20029;-65
2023/05/23 02:09:53;;;;;;;14.93;6.32;;;14.90;99.90;;;;;;5075697;28;20485;-65
2023/05/23 02:12:18;;;;;;;10.82;5.53;;;14.90;99.90;;;;;;5075441;28;20032;-64
2023/05/23 02:14:44;;;;;;;11.85;5.47;;;14.90;99.90;;;;;;5056868;28;20495;-65
2023/05/23 02:17:09;;;;;;;12.80;5.60;;;14.90;99.90;;;;;;5073924;28;20024;-65
2023/05/23 02:19:36;;;;;;;14.98;5.65;;;14.90;99.90;;;;;;5056303;28;20615;-65
2023/05/23 02:22:02;;;;;;;14.00;5.97;;;14.90;99.90;;;;;;5059955;28;20095;-64
2023/05/23 02:24:28;;;;;;;12.30;6.53;;;14.90;99.90;;;;;;5052630;28;20415;-64
2023/05/23 02:26:53;;;;;;;10.60;5.78;;;14.90;99.90;;;;;;5076120;28;20465;-64
2023/05/23 02:29:19;;;;;;;11.90;5.75;;;14.90;99.90;;;;;;5074606;28;20594;-65
2023/05/23 02:31:45;;;;;;;13.40;5.72;;;14.90;99.90;;;;;;5073784;28;20041;-63
2023/05/23 02:34:10;;;;;;;12.05;5.63;;;14.90;99.90;;;;;;5056135;28;20362;-65
2023/05/23 02:36:36;;;;;;;11.82;6.03;;;14.90;99.90;;;;;;5056344;28;20054;-68
2023/05/23 02:39:02;;;;;;;19.08;6.75;;;14.90;99.90;;;;;;5075678;28;20357;-65
2023/05/23 02:41:28;;;;;;;13.68;6.28;;;14.90;99.90;;;;;;5074990;28;20464;-64
2023/05/23 02:43:54;;;;;;;13.40;7.32;;;14.90;99.90;;;;;;5074967;28;20100;-65
2023/05/23 02:46:20;;;;;;;10.75;6.05;;;14.90;99.90;;;;;;5073245;28;20063;-65
2023/05/23 02:48:45;;;;;;;13.45;6.72;;;14.80;99.90;;;;;;5067069;28;20045;-65
2023/05/23 02:51:12;;;;;;;12.00;6.22;;;14.80;99.90;;;;;;5054763;28;20064;-65
2023/05/23 02:53:38;;;;;;;12.27;6.03;;;14.80;99.90;;;;;;5060268;28;20032;-66
2023/05/23 02:56:04;;;;;;;13.77;6.63;;;14.80;99.90;;;;;;5073406;28;20108;-65
2023/05/23 02:58:30;;;;;;;13.10;5.88;;;14.70;99.90;;;;;;5075318;28;20049;-65
2023/05/23 03:00:56;;;;;;;11.73;5.75;;;14.70;99.90;;;;;;5074424;28;20028;-64
2023/05/23 03:03:22;;;;;;;12.25;6.45;;;14.80;99.90;;;;;;5074577;28;20024;-64
2023/05/23 03:05:48;;;;;;;12.02;6.43;;;14.70;99.90;;;;;;5057364;28;20025;-66
2023/05/23 03:08:13;;;;;;;13.82;6.07;;;14.70;99.90;;;;;;5072916;28;20393;-65
2023/05/23 03:10:39;;;;;;;12.70;6.70;;;14.70;99.90;;;;;;5074422;28;20166;-65
2023/05/23 03:13:04;;;;;;;10.38;6.22;;;14.70;99.90;;;;;;5075049;28;20035;-64
2023/05/23 03:15:30;;;;;;;12.32;6.60;;;14.70;99.90;;;;;;5074998;28;20025;-65
2023/05/23 03:17:55;;;;;;;14.93;6.50;;;14.70;99.90;;;;;;5073434;28;20447;-64
2023/05/23 03:20:21;;;;;;;11.35;6.72;;;14.70;99.90;;;;;;5070606;28;20025;-64
2023/05/23 03:22:47;;;;;;;13.25;6.47;;;14.70;99.90;;;;;;5072253;28;20020;-65
2023/05/23 03:25:15;;;;;;;13.50;6.75;;;14.70;99.90;;;;;;5072652;28;20103;-65
2023/05/23 03:27:40;;;;;;;12.77;6.72;;;14.60;99.90;;;;;;5072359;28;20024;-65
2023/05/23 03:30:07;;;;;;;15.55;6.57;;;14.60;99.90;;;;;;5074750;28;20028;-66
2023/05/23 03:32:32;;;;;;;13.18;6.22;;;14.60;99.90;;;;;;5074352;28;20432;-64
2023/05/23 03:34:58;;;;;;;10.88;5.90;;;14.50;99.90;;;;;;5071582;28;20025;-64
2023/05/23 03:37:23;;;;;;;13.63;5.43;;;14.50;99.90;;;;;;5073659;28;20063;-64
2023/05/23 03:39:50;;;;;;;11.77;6.10;;;14.50;99.90;;;;;;5069239;28;20035;-65
2023/05/23 03:42:17;;;;;;;19.75;6.75;;;14.50;99.90;;;;;;5056459;28;20120;-64
2023/05/23 03:44:42;;;;;;;15.35;6.70;;;14.50;99.90;;;;;;5073290;28;20024;-64
2023/05/23 03:47:08;;;;;;;12.23;6.47;;;14.40;99.90;;;;;;5055311;28;20077;-64
2023/05/23 03:49:34;;;;;;;14.00;6.90;;;14.40;99.90;;;;;;5067985;28;20016;-66
2023/05/23 03:51:59;;;;;;;15.02;7.22;;;14.40;99.90;;;;;;5073194;28;20033;-64
2023/05/23 03:54:25;;;;;;;13.93;7.25;;;14.40;99.90;;;;;;5071801;28;20052;-64
2023/05/23 03:56:51;;;;;;;13.48;6.07;;;14.40;99.90;;;;;;5074389;28;20063;-64
2023/05/23 03:59:17;;;;;;;9.85;5.93;;;14.40;99.90;;;;;;5054732;28;20037;-65
2023/05/23 04:01:43;;;;;;;12.48;6.85;;;14.30;99.90;;;;;;5073082;28;20032;-64
2023/05/23 04:04:08;;;;;;;14.48;6.57;;;14.30;99.90;;;;;;5073622;28;20034;-64
2023/05/23 04:06:34;;;;;;;12.27;6.50;;;14.30;99.90;;;;;;5071846;28;20401;-63
2023/05/23 04:09:01;;;;;;;11.60;6.03;;;14.40;99.90;;;;;;5074278;28;20039;-63
2023/05/23 04:11:27;;;;;;;12.00;6.70;;;14.40;99.90;;;;;;5074099;28;20029;-63
2023/05/23 04:13:53;;;;;;;14.48;6.68;;;14.40;99.90;;;;;;5072312;28;20473;-63
2023/05/23 04:16:18;;;;;;;13.88;6.40;;;14.40;99.90;;;;;;5073328;28;20043;-64
2023/05/23 04:18:46;;;;;;;14.07;5.93;;;14.40;99.90;;;;;;5073729;28;20024;-65
2023/05/23 04:21:12;;;;;;;17.35;6.40;;;14.50;99.90;;;;;;5071794;28;20032;-64
2023/05/23 04:23:37;;;;;;;11.02;5.63;;;14.40;99.90;;;;;;5072266;28;20054;-65
2023/05/23 04:26:04;;;;;;;14.15;6.97;;;14.50;99.90;;;;;;5073977;28;20426;-65
2023/05/23 04:28:30;;;;;;;15.63;6.88;;;14.50;99.90;;;;;;5072049;28;20060;-69
2023/05/23 04:30:57;;;;;;;12.85;5.78;;;14.50;99.90;;;;;;5054763;28;20162;-64
2023/05/23 04:33:23;;;;;;;13.23;6.03;;;14.50;99.90;;;;;;5073102;28;20029;-66
2023/05/23 04:35:48;;;;;;;9.85;5.80;;;14.50;99.90;;;;;;5055372;28;20039;-65
2023/05/23 04:38:14;;;;;;;14.05;5.93;;;14.50;99.90;;;;;;5073854;28;20025;-66
2023/05/23 04:40:40;;;;;;;10.68;5.88;;;14.60;99.90;;;;;;5071932;28;20103;-65
2023/05/23 04:43:08;;;;;;;12.98;5.63;;;14.50;99.90;;;;;;5070997;28;20028;-64
2023/05/23 04:45:33;;;;;;;14.27;7.03;;;14.50;99.90;;;;;;5072633;28;20023;-73
2023/05/23 04:47:59;;;;;;;14.05;5.88;;;14.60;99.90;;;;;;5073299;28;20416;-63
2023/05/23 04:50:24;;;;;;;9.90;5.50;;;14.60;99.90;;;;;;5072324;28;20084;-64
2023/05/23 04:52:50;;;;;;;13.32;5.45;;;14.60;99.90;;;;;;5072010;28;20025;-64
2023/05/23 04:55:16;;;;;;;15.18;6.40;;;14.60;99.90;;;;;;5071907;28;20477;-64
2023/05/23 04:57:41;;;;;;;11.80;5.55;;;14.50;99.90;;;;;;5070688;28;20412;-64
2023/05/23 05:00:10;;;;;;;12.98;5.20;;;14.60;99.90;;;;;;5069330;28;20039;-72
2023/05/23 05:02:37;;;;;;;11.88;5.63;;;14.50;99.90;;;;;;5068597;28;20057;-64
2023/05/23 05:05:03;;;;;;;11.93;5.38;;;14.50;99.90;;;;;;5053638;28;20029;-64
2023/05/23 05:07:29;;;;;;;11.50;5.05;;;14.40;99.90;;;;;;5071782;28;20028;-63
2023/05/23 05:09:55;;;;;;;17.02;6.25;;;14.30;99.90;;;;;;5072240;28;20025;-64
2023/05/23 05:12:20;;;;;;;15.45;6.22;;;14.30;99.90;;;;;;5072939;28;20032;-66
2023/05/23 05:14:46;;;;;;;12.27;6.55;;;14.20;99.90;;;;;;5070919;28;20081;-63
2023/05/23 05:17:11;;;;;;;16.63;6.25;;;14.20;99.90;;;;;;5070855;28;20077;-64
2023/05/23 05:19:37;;;;;;;15.48;6.53;;;14.20;99.90;;;;;;5072231;28;20500;-67
2023/05/23 05:22:03;;;;;;;14.60;6.63;;;14.10;99.90;;;;;;5073127;28;20117;-63
2023/05/23 05:24:29;;;;;;;14.48;6.50;;;14.00;99.90;;;;;;5072303;28;20579;-63
2023/05/23 05:26:55;;;;;;;14.90;6.22;;;14.00;99.90;;;;;;5068798;28;20036;-64
2023/05/23 05:29:21;;;;;;;15.43;6.45;;;13.90;99.90;;;;;;5072717;28;20024;-64
2023/05/23 05:31:47;;;;;;;14.15;6.50;;;13.90;99.90;;;;;;5045214;28;21316;-64
2023/05/23 05:34:13;;;;;;;15.30;6.93;;;13.90;99.90;;;;;;5071736;28;20115;-64
2023/05/23 05:36:44;;;;;;;14.77;6.15;;;13.90;99.90;;;;;;5072811;28;20485;-64
2023/05/23 05:39:11;;;;;;;17.88;6.07;;;13.80;99.90;;;;;;5054068;28;20048;-64
2023/05/23 05:41:37;;;;;;;15.57;7.20;;;13.70;99.90;;;;;;5071168;28;20032;-64
2023/05/23 05:44:03;;;;;;;12.82;5.65;;;13.70;99.90;;;;;;5072579;28;20028;-63
2023/05/23 05:46:28;;;;;;;13.90;6.15;;;13.60;99.90;;;;;;5068868;28;20024;-62
2023/05/23 05:48:54;;;;;;;17.60;6.25;;;13.60;99.90;;;;;;5071870;28;20028;-63
2023/05/23 05:51:20;;;;;;;11.55;5.55;;;13.60;99.90;;;;;;5071429;28;20550;-62
2023/05/23 05:53:46;;;;;;;11.55;4.85;;;13.60;99.90;;;;;;5072108;28;20062;-63
2023/05/23 05:56:12;;;;;;;17.67;6.13;;;13.50;99.90;;;;;;5071580;28;20033;-63
2023/05/23 05:58:37;;;;;;;14.15;5.15;;;13.50;99.90;;;;;;5071316;28;20409;-63
2023/05/23 06:01:04;;;;;;;12.63;6.13;;;13.40;99.90;;;;;;5069727;28;20448;-62
2023/05/23 06:03:30;;;;;;;14.50;5.80;;;13.40;99.90;;;;;;5072505;28;20021;-63
2023/05/23 06:05:56;;;;;;;19.63;6.47;;;13.40;99.90;;;;;;5052996;28;20103;-63
2023/05/23 06:08:21;;;;;;;16.80;5.93;;;13.40;99.90;;;;;;5072165;28;20306;-63
2023/05/23 06:10:47;;;;;;;14.68;6.40;;;13.40;99.90;;;;;;5070126;28;20091;-67
2023/05/23 06:13:13;;;;;;;16.52;6.47;;;13.40;99.90;;;;;;5069994;28;20028;-63
2023/05/23 06:15:38;;;;;;;13.50;5.72;;;13.30;99.90;;;;;;5066709;28;20021;-66
2023/05/23 06:18:04;;;;;;;12.10;6.20;;;13.30;99.90;;;;;;5071945;28;20078;-71
2023/05/23 06:20:30;;;;;;;13.30;5.80;;;13.30;99.90;;;;;;5069284;28;20152;-65
2023/05/23 06:22:55;;;;;;;14.25;5.80;;;13.20;99.90;;;;;;5070928;28;20025;-65
2023/05/23 06:25:21;;;;;;;12.43;5.28;;;13.20;99.90;;;;;;5070902;28;20028;-63
2023/05/23 06:27:46;;;;;;;13.13;6.22;;;13.20;99.90;;;;;;5075257;28;20357;-64
2023/05/23 06:30:13;;;;;;;16.73;7.43;;;13.20;99.90;;;;;;5073374;28;20060;-71
2023/05/23 06:32:39;;;;;;;14.73;5.97;;;13.10;99.90;;;;;;5075806;28;20111;-64
2023/05/23 06:35:05;;;;;;;11.40;5.13;;;13.10;99.90;;;;;;5075001;28;20017;-72
2023/05/23 06:37:31;;;;;;;15.00;5.63;;;13.00;99.90;;;;;;5075254;28;20059;-63
2023/05/23 06:39:56;;;;;;;11.30;5.20;;;13.00;99.90;;;;;;5073952;28;20017;-64
2023/05/23 06:42:22;;;;;;;14.02;6.50;;;13.00;99.90;;;;;;5074577;28;20051;-76
2023/05/23 06:44:48;;;;;;;10.18;4.40;;;13.00;99.90;;;;;;5051850;28;20021;-63
2023/05/23 06:47:13;;;;;;;11.60;5.05;;;13.00;99.90;;;;;;5074613;28;20025;-63
2023/05/23 06:49:39;;;;;;;10.68;4.75;;;13.00;99.90;;;;;;5074461;28;20457;-64
2023/05/23 06:52:04;;;;;;;12.13;4.95;;;13.00;99.90;;;;;;5075646;28;20068;-63
2023/05/23 06:54:30;;;;;;;8.85;3.83;;;12.90;99.90;;;;;;5075712;28;20017;-64
2023/05/23 06:56:56;;;;;;;10.30;3.92;;;13.00;99.90;;;;;;5072198;28;20117;-64
2023/05/23 06:59:21;;;;;;;10.68;4.00;;;13.00;99.90;;;;;;5056780;28;20103;-63
2023/05/23 07:01:47;;;;;;;11.50;4.55;;;13.00;99.90;;;;;;5074727;28;20032;-64
2023/05/23 07:04:12;;;;;;;7.57;3.58;;;13.00;99.90;;;;;;5074889;28;20020;-66
2023/05/23 07:06:38;;;;;;;9.27;4.15;;;13.00;99.90;;;;;;5071548;28;20050;-65
2023/05/23 07:09:04;;;;;;;9.38;3.80;;;13.00;99.90;;;;;;5073914;28;20024;-64
2023/05/23 07:11:30;;;;;;;10.30;3.67;;;13.10;99.90;;;;;;5073739;28;20090;-71
2023/05/23 07:13:56;;;;;;;7.80;3.97;;;13.30;99.90;;;;;;5073394;28;20020;-64
2023/05/23 07:16:21;;;;;;;9.23;3.65;;;13.40;99.90;;;;;;5074803;28;20028;-63
2023/05/23 07:18:47;;;;;;;14.43;5.10;;;13.50;99.90;;;;;;5055969;28;20029;-63
2023/05/23 07:21:13;;;;;;;9.23;3.65;;;13.60;99.90;;;;;;5061080;28;20043;-63
2023/05/23 07:23:39;;;;;;;9.27;3.97;;;13.70;99.90;;;;;;5055284;28;20067;-63
2023/05/23 07:26:08;;;;;;;10.35;4.22;;;13.80;99.90;;;;;;5075319;28;20460;-64
2023/05/23 07:28:34;;;;;;;13.77;4.68;;;14.00;99.90;;;;;;5073348;28;20116;-63
2023/05/23 07:31:00;;;;;;;9.10;3.67;;;14.10;99.90;;;;;;5071629;28;20094;-63
2023/05/23 07:33:25;;;;;;;10.48;4.13;;;14.20;99.90;;;;;;5075106;28;20017;-64
2023/05/23 07:35:51;;;;;;;12.35;4.18;;;14.20;99.90;;;;;;5073511;28;20020;-65
2023/05/23 07:38:16;;;;;;;8.57;3.70;;;14.20;99.90;;;;;;5050608;28;20060;-63
2023/05/23 07:40:42;;;;;;;10.15;3.63;;;14.10;99.90;;;;;;5061737;28;20033;-63
2023/05/23 07:43:08;;;;;;;10.00;4.30;;;14.10;99.90;;;;;;5072473;28;20024;-63
2023/05/23 07:45:33;;;;;;;11.07;4.20;;;14.00;99.90;;;;;;5074213;28;20029;-63
2023/05/23 07:47:59;;;;;;;11.25;4.57;;;14.00;99.90;;;;;;5074020;28;20407;-63
2023/05/23 07:50:26;;;;;;;13.52;4.68;;;14.10;99.90;;;;;;5074709;28;20039;-63
2023/05/23 07:52:52;;;;;;;11.50;4.18;;;14.10;99.90;;;;;;5056126;28;20032;-64
2023/05/23 07:55:17;;;;;;;15.35;4.25;;;14.30;99.90;;;;;;5060434;28;20036;-64
2023/05/23 07:57:43;;;;;;;9.90;4.32;;;14.50;99.90;;;;;;5056888;28;20024;-67
2023/05/23 08:00:10;;;;;;;10.23;4.25;;;14.60;99.90;;;;;;5072499;28;20058;-65
2023/05/23 08:02:36;;;;;;;11.32;3.30;;;14.70;99.90;;;;;;5056132;28;20025;-64
2023/05/23 08:05:02;;;;;;;10.27;3.75;;;14.70;99.90;;;;;;5074634;28;20484;-65
2023/05/23 08:07:27;;;;;;;13.25;3.42;;;14.60;99.90;;;;;;5072549;28;20436;-63
2023/05/23 08:09:53;;;;;;;5.25;2.55;;;14.40;99.90;;;;;;5074284;28;20029;-63
2023/05/23 08:12:18;;;;;;;8.40;2.60;;;14.40;99.90;;;;;;5070929;28;20029;-63
2023/05/23 08:14:44;;;;;;;8.05;2.47;;;14.40;99.90;;;;;;5055778;28;20494;-64
2023/05/23 08:17:11;;;;;;;7.60;2.65;;;14.40;99.90;;;;;;5055974;28;20421;-66
2023/05/23 08:19:37;;;;;;;8.50;3.20;;;14.40;99.90;;;;;;5071172;28;20044;-67
2023/05/23 08:22:03;;;;;;;12.23;3.15;;;14.40;99.90;;;;;;5073181;28;20068;-64
2023/05/23 08:24:29;;;;;;;7.88;2.80;;;14.40;99.90;;;;;;5070839;28;20035;-64
2023/05/23 08:26:55;;;;;;;7.47;2.70;;;14.30;99.90;;;;;;5065844;28;20058;-64
2023/05/23 08:29:21;;;;;;;9.68;2.83;;;14.30;99.90;;;;;;5073909;28;20029;-64
2023/05/23 08:31:46;;;;;;;7.22;2.70;;;14.30;99.90;;;;;;5070316;28;20072;-66
2023/05/23 08:34:13;;;;;;;8.32;2.75;;;14.20;99.90;;;;;;5052455;28;20032;-63
2023/05/23 08:36:39;;;;;;;8.23;2.55;;;14.20;99.90;;;;;;5068881;28;20151;-66
2023/05/23 08:39:04;;;;;;;7.15;2.40;;;14.30;99.90;;;;;;5053550;28;20009;-64
2023/05/23 08:41:30;;;;;;;7.72;2.30;;;14.50;99.90;;;;;;5033924;28;20071;-64
2023/05/23 08:43:56;;;;;;;12.57;3.10;;;14.60;99.90;;;;;;5065443;28;20090;-63
2023/05/23 08:46:22;;;;;;;11.95;3.00;;;14.70;99.90;;;;;;5069598;28;20099;-64
2023/05/23 08:48:53;;;;;;;7.13;2.70;;;14.70;99.90;;;;;;5068270;28;20024;-64
2023/05/23 08:51:21;;;;;;;6.35;2.40;;;14.80;99.90;;;;;;5070975;28;20115;-64
2023/05/23 08:53:47;;;;;;;10.40;3.15;;;14.90;99.90;;;;;;5041288;28;20515;-64
2023/05/23 08:56:15;;;;;;;7.88;2.30;;;15.00;99.90;;;;;;5047708;28;20025;-67
2023/05/23 08:58:42;;;;;;;14.43;3.15;;;15.00;99.90;;;;;;5069347;28;20389;-66
2023/05/23 09:01:12;;;;;;;10.05;3.20;;;14.90;99.90;;;;;;5055089;28;20389;-64
2023/05/23 09:03:39;;;;;;;8.80;2.42;;;14.90;99.90;;;;;;5064379;28;20032;-63
2023/05/23 09:06:09;;;;;;;10.48;2.65;;;14.90;99.90;;;;;;5072008;28;20029;-63
2023/05/23 09:08:35;;;;;;;13.60;2.90;;;14.90;99.90;;;;;;5062531;28;20025;-65
2023/05/23 09:11:02;;;;;;;6.63;2.50;;;14.90;99.90;;;;;;5061211;28;20039;-63
2023/05/23 09:13:30;;;;;;;10.45;1.92;;;15.10;99.90;;;;;;5070511;28;20047;-64
2023/05/23 09:15:58;;;;;;;6.68;2.45;;;15.20;99.90;;;;;;5060687;28;20079;-63
2023/05/23 09:18:25;;;;;;;9.20;2.60;;;15.20;99.90;;;;;;5055854;28;20059;-63
2023/05/23 09:20:51;;;;;;;6.38;2.22;;;15.20;99.90;;;;;;5066791;28;20028;-64
2023/05/23 09:23:17;;;;;;;7.97;2.25;;;15.30;99.90;;;;;;5066797;28;20009;-65
2023/05/23 09:25:46;;;;;;;8.25;2.65;;;15.40;99.90;;;;;;5072878;28;20032;-64
2023/05/23 09:28:12;;;;;;;6.60;2.10;;;15.50;99.90;;;;;;5058060;28;20472;-63
2023/05/23 09:30:38;;;;;;;9.40;2.22;;;15.40;99.90;;;;;;5066356;28;20059;-65
2023/05/23 09:33:04;;;;;;;7.75;2.60;;;15.30;99.90;;;;;;5069236;28;20031;-67
2023/05/23 09:35:29;;;;;;;7.80;2.10;;;15.40;99.90;;;;;;5070421;28;20029;-63
2023/05/23 09:37:58;;;;;;;10.35;2.75;;;15.30;99.90;;;;;;5066588;28;20031;-64
2023/05/23 09:40:30;;;;;;;11.93;3.00;;;15.40;99.90;;;;;;5072152;28;20027;-64
2023/05/23 09:43:03;;;;;;;8.68;2.45;;;15.70;99.90;;;;;;5068658;28;20530;-66
2023/05/23 09:45:30;;;;;;;8.95;2.65;;;15.80;99.90;;;;;;5072624;28;20021;-66
2023/05/23 09:47:56;;;;;;;8.23;2.67;;;15.80;99.90;;;;;;5071789;28;20025;-67
2023/05/23 09:50:22;;;;;;;12.75;2.75;;;15.80;99.90;;;;;;5071399;28;20036;-66
2023/05/23 09:52:49;;;;;;;11.80;2.70;;;15.80;99.90;;;;;;5068121;28;20040;-68
2023/05/23 09:55:15;;;;;;;9.95;2.80;;;15.80;99.90;;;;;;5066319;28;20079;-63
2023/05/23 09:57:43;;;;;;;7.88;2.55;;;15.70;99.90;;;;;;5064234;28;20063;-64
2023/05/23 10:00:10;;;;;;;8.27;2.80;;;15.70;99.90;;;;;;5064249;28;20070;-65
2023/05/23 10:02:57;;;;;;;11.75;3.05;;;15.70;99.90;;;;;;5069044;28;20021;-66
2023/05/23 10:05:47;;;;;;;8.68;2.70;;;15.80;99.90;;;;;;5063425;28;20407;-65
2023/05/23 10:08:41;;;;;;;10.00;2.80;;;15.90;99.90;;;;;;5042909;28;20039;-61
2023/05/23 10:11:13;;;;;;;10.07;2.75;;;16.10;99.20;;;;;;5062401;28;20318;-61
2023/05/23 10:13:45;;;;;;;6.22;2.22;;;16.20;99.30;;;;;;5042206;28;20483;-62
2023/05/23 10:16:27;;;;;;;6.50;2.40;;;16.30;98.40;;;;;;5040393;28;20500;-61
2023/05/23 10:19:09;;;;;;;9.05;2.90;;;16.30;97.00;;;;;;5040782;28;20111;-60
2023/05/23 10:21:41;;;;;;;9.75;2.60;;;16.30;96.80;;;;;;5056704;28;20020;-61
2023/05/23 10:24:07;;;;;;;7.85;2.92;;;16.30;96.50;;;;;;5039545;28;20017;-62
2023/05/23 10:26:33;;;;;;;9.10;3.20;;;16.40;96.80;;;;;;5051909;28;20043;-61
2023/05/23 10:29:00;;;;;;;9.00;2.60;;;16.50;96.70;;;;;;5048388;28;20021;-61
2023/05/23 10:31:28;;;;;;;7.68;2.80;;;16.50;95.70;;;;;;5049928;28;20155;-60
2023/05/23 10:34:26;;;;;;;9.10;2.83;;;16.50;95.50;;;;;;5054491;28;20024;-61
2023/05/23 10:37:04;;;;;;;11.32;2.65;;;16.70;97.20;;;;;;5051028;28;20119;-62
2023/05/23 10:39:38;;;;;;;9.52;2.90;;;16.80;94.10;;;;;;5051955;28;20036;-60
2023/05/23 10:42:14;;;;;;;11.55;2.63;;;16.90;94.30;;;;;;5055605;28;20059;-64
2023/05/23 10:44:40;;;;;;;11.88;2.80;;;17.00;94.10;;;;;;5051006;28;20078;-61
2023/05/23 10:47:06;;;;;;;7.80;2.63;;;17.10;93.80;;;;;;5044702;28;20146;-61
2023/05/23 10:49:45;;;;;;;12.35;3.13;;;17.10;94.30;;;;;;5052739;28;20029;-61
2023/05/23 10:52:13;;;;;;;8.93;2.75;;;17.30;93.20;;;;;;5056514;28;20060;-60
2023/05/23 10:54:43;;;;;;;8.93;2.58;;;17.30;93.30;;;;;;5034372;28;20028;-61
2023/05/23 10:57:11;;;;;;;9.45;2.78;;;17.10;91.80;;;;;;5051040;28;20613;-61
2023/05/23 10:59:40;;;;;;;9.65;2.72;;;16.90;90.70;;;;;;5044881;28;20118;-61
2023/05/23 11:02:14;;;;;;;9.80;2.58;;;16.90;92.50;;;;;;5035494;28;20036;-62
2023/05/23 11:04:41;;;;;;;7.93;2.40;;;17.00;91.10;;;;;;5050141;28;20055;-61
2023/05/23 11:07:31;;;;;;;8.82;2.92;;;17.10;90.50;;;;;;5058607;28;20036;-66
2023/05/23 11:10:10;;;;;;;7.00;2.13;;;17.20;91.10;;;;;;5068010;28;20028;-66
2023/05/23 11:12:43;;;;;;;8.18;2.33;;;17.30;91.10;;;;;;5072689;28;20036;-66
2023/05/23 11:15:21;;;;;;;8.27;2.50;;;17.50;90.00;;;;;;5060755;28;20032;-67
2023/05/23 11:17:52;;;;;;;6.53;2.10;;;17.60;89.10;;;;;;5061516;28;20029;-67
2023/05/23 11:20:23;;;;;;;4.35;1.80;;;17.60;86.80;;;;;;5037592;28;20028;-68
2023/05/23 11:22:59;;;;;;;9.50;2.38;;;17.40;87.70;;;;;;5054957;28;20063;-66
2023/05/23 11:25:40;;;;;;;9.10;2.20;;;17.40;90.40;;;;;;5055551;28;20028;-67
2023/05/23 11:28:06;;;;;;;9.00;3.50;;;17.40;90.10;;;;;;5057114;28;20082;-67
2023/05/23 11:30:33;;;;;;;9.25;2.70;;;17.40;87.90;;;;;;5054582;28;20473;-67
2023/05/23 11:32:59;;;;;;;8.32;2.13;;;17.50;89.20;;;;;;5067147;28;20485;-67
2023/05/23 11:35:26;;;;;;;8.40;2.03;;;17.50;84.10;;;;;;5074296;28;20032;-67
2023/05/23 11:37:52;;;;;;;11.40;2.85;;;17.30;84.20;;;;;;5074641;28;20035;-67
2023/05/23 11:40:45;;;;;;;13.65;2.75;;;17.30;86.20;;;;;;5073572;28;20028;-67
2023/05/23 11:43:18;;;;;;;9.27;2.30;;;17.40;86.70;;;;;;5070232;28;20068;-67
2023/05/23 11:45:47;;;;;;;6.53;2.53;;;17.50;90.30;;;;;;5074352;28;20048;-67
2023/05/23 11:48:15;;;;;;;5.70;2.10;;;17.60;87.90;;;;;;5074428;28;20064;-66
2023/05/23 11:50:48;;;;;;;7.53;1.92;;;17.60;85.70;;;;;;5059454;28;20040;-66
2023/05/23 11:53:19;;;;;;;6.05;2.05;;;17.60;86.90;;;;;;5062377;28;20036;-67
2023/05/23 11:55:57;;;;;;;5.10;1.88;;;17.70;85.80;;;;;;5061766;28;20024;-66
2023/05/23 11:58:36;;;;;;;8.82;3.05;;;17.90;86.50;;;;;;5073758;28;20040;-66
2023/05/23 12:01:04;;;;;;;6.88;2.60;;;17.90;81.90;;;;;;5055653;28;20491;-67
2023/05/23 12:03:30;;;;;;;8.88;2.20;;;17.70;82.70;;;;;;5070004;28;20020;-66
2023/05/23 12:05:56;;;;;;;9.18;2.15;;;17.70;83.50;;;;;;5064055;28;20017;-67
2023/05/23 12:08:23;;;;;;;7.82;2.13;;;17.70;84.60;;;;;;5072047;28;20029;-66
2023/05/23 12:11:00;;;;;;;7.13;2.28;;;17.80;84.30;;;;;;5072572;28;20039;-66
2023/05/23 12:13:28;;;;;;;7.47;2.47;;;17.80;82.40;;;;;;5060817;28;20372;-66
2023/05/23 12:15:55;;;;;;;11.45;2.40;;;17.70;82.00;;;;;;5067282;28;20034;-65
2023/05/23 12:18:21;;;;;;;7.18;1.98;;;17.70;81.20;;;;;;5069692;28;20044;-63
2023/05/23 12:20:49;;;;;;;5.50;1.85;;;17.70;79.90;;;;;;5049857;28;20539;-67
2023/05/23 12:23:21;;;;;;;10.07;2.65;;;17.60;81.50;;;;;;5051958;28;20028;-64
2023/05/23 12:25:51;;;;;;;7.40;2.20;;;17.60;81.10;;;;;;5073621;28;20016;-65
2023/05/23 12:28:17;;;;;;;7.82;2.42;;;17.60;81.50;;;;;;5067717;28;20062;-66
2023/05/23 12:30:43;;;;;;;7.45;2.40;;;17.70;82.80;;;;;;5072482;28;20036;-66
2023/05/23 12:33:10;;;;;;;11.82;2.42;;;17.80;82.10;;;;;;5064479;28;20048;-65
2023/05/23 12:35:36;;;;;;;12.63;3.33;;;17.90;83.30;;;;;;5066123;28;20111;-66
2023/05/23 12:38:08;;;;;;;9.80;2.30;;;18.10;80.40;;;;;;5066968;28;20103;-65
2023/05/23 12:40:34;;;;;;;6.63;1.83;;;18.20;80.50;;;;;;5068717;28;20029;-65
2023/05/23 12:43:00;;;;;;;6.95;2.50;;;18.20;78.60;;;;;;5064485;28;20025;-66